Time;durP1;ratioP1;P1;durP2;ratioP2;P2;SDS_P1;SDS_P2;PMS_P1;PMS_P2;Temp;Humidity;BMP_temperature;BMP_pressure;BME280_temperature;BME280_humidity;BME280_pressure;Samples;Min_cycle;Max_cycle;Signal;HPM_P1;HPM_P2
2023/08/24 00:00:51;;;;;;;9.88;7.70;;;;;;;27.52;46.44;99745.09;5118833;28;20039;-69
2023/08/24 00:03:17;;;;;;;10.88;8.52;;;;;;;27.63;46.57;99754.09;5119228;28;20036;-69
2023/08/24 00:05:42;;;;;;;9.98;7.85;;;;;;;27.61;46.71;99746.19;5119159;28;20036;-69
2023/08/24 00:08:09;;;;;;;8.88;7.97;;;;;;;27.67;46.82;99752.44;5119268;28;20032;-69
2023/08/24 00:10:35;;;;;;;12.25;8.57;;;;;;;27.59;45.49;99753.78;5119021;28;20046;-69
2023/08/24 00:13:01;;;;;;;9.75;8.30;;;;;;;27.58;46.53;99756.78;5119247;28;20074;-69
2023/08/24 00:15:26;;;;;;;10.98;7.75;;;;;;;27.63;46.29;99756.81;5119160;28;20257;-69
2023/08/24 00:17:52;;;;;;;9.98;8.13;;;;;;;27.68;46.60;99756.81;5119488;28;20059;-69
2023/08/24 00:20:17;;;;;;;10.95;7.65;;;;;;;27.57;47.44;99747.00;5118535;28;20341;-69
2023/08/24 00:22:43;;;;;;;10.55;8.68;;;;;;;27.50;47.37;99747.28;5119184;28;20218;-69
2023/08/24 00:25:09;;;;;;;10.10;8.02;;;;;;;27.55;47.19;99741.00;5119269;28;20035;-69
2023/08/24 00:27:35;;;;;;;8.85;7.95;;;;;;;27.60;47.60;99747.28;5119020;28;20241;-69
2023/08/24 00:30:06;;;;;;;10.43;7.85;;;;;;;27.53;47.99;99754.88;5119294;28;20067;-69
2023/08/24 00:32:35;;;;;;;10.27;8.15;;;;;;;27.35;48.17;99748.09;5118938;28;20285;-69
2023/08/24 00:35:06;;;;;;;10.23;9.02;;;;;;;27.34;48.60;99748.38;5118412;28;20039;-69
2023/08/24 00:37:32;;;;;;;10.90;8.57;;;;;;;27.24;48.93;99751.06;5118375;28;20035;-69
2023/08/24 00:40:00;;;;;;;9.32;8.25;;;;;;;27.12;49.40;99753.25;5117997;28;20223;-69
2023/08/24 00:42:26;;;;;;;10.77;9.20;;;;;;;26.91;49.75;99753.16;5117860;28;20031;-69
2023/08/24 00:44:51;;;;;;;11.27;8.70;;;;;;;26.80;50.07;99739.81;5118004;28;20050;-69
2023/08/24 00:47:17;;;;;;;11.50;9.18;;;;;;;26.85;50.16;99750.69;5118200;28;20032;-69
2023/08/24 00:49:43;;;;;;;10.60;8.90;;;;;;;26.90;50.55;99742.56;5118001;28;20045;-69
2023/08/24 00:52:10;;;;;;;11.10;9.77;;;;;;;26.91;50.95;99745.00;5118980;28;20036;-69
2023/08/24 00:54:37;;;;;;;12.32;8.93;;;;;;;26.83;50.09;99756.41;5118302;28;20036;-68
2023/08/24 00:57:03;;;;;;;13.57;9.88;;;;;;;26.79;49.90;99746.34;5118569;28;20099;-69
2023/08/24 00:59:28;;;;;;;11.80;9.07;;;;;;;26.81;50.43;99745.00;5117847;28;20035;-68
2023/08/24 01:01:55;;;;;;;12.35;9.65;;;;;;;26.75;50.50;99753.41;5118775;28;20036;-68
2023/08/24 01:04:21;;;;;;;10.43;9.25;;;;;;;26.66;50.43;99758.53;5122240;28;20032;-68
2023/08/24 01:06:46;;;;;;;11.50;9.20;;;;;;;26.70;50.41;99743.34;5123106;28;20043;-68
2023/08/24 01:09:11;;;;;;;10.57;9.15;;;;;;;26.64;51.63;99737.06;5122551;28;20049;-68
2023/08/24 01:12:13;;;;;;;11.98;9.93;;;;;;;26.67;51.12;99741.16;5122313;28;20108;-69
2023/08/24 01:14:45;;;;;;;12.05;10.20;;;;;;;26.56;51.87;99734.88;5122621;28;20134;-68
2023/08/24 01:17:16;;;;;;;10.15;9.10;;;;;;;26.73;51.46;99746.31;5122372;28;20071;-68
2023/08/24 01:19:43;;;;;;;11.15;9.20;;;;;;;26.80;50.81;99747.97;5122134;28;20062;-69
2023/08/24 01:22:34;;;;;;;12.90;9.75;;;;;;;26.61;50.96;99748.47;5122657;28;20106;-69
2023/08/24 01:25:17;;;;;;;12.88;9.65;;;;;;;26.47;52.30;99744.63;5114314;28;20044;-68
2023/08/24 01:27:43;;;;;;;13.30;9.83;;;;;;;26.40;52.40;99741.34;5121462;28;20039;-68
2023/08/24 01:30:09;;;;;;;13.95;10.13;;;;;;;26.45;52.45;99738.63;5121238;28;20453;-68
2023/08/24 01:32:35;;;;;;;13.95;10.13;;;;;;;26.45;52.28;99735.09;5121279;28;20063;-68
2023/08/24 01:35:07;;;;;;;11.57;8.98;;;;;;;26.44;52.78;99737.00;5122507;28;20088;-68
2023/08/24 01:37:34;;;;;;;10.88;9.57;;;;;;;26.52;52.04;99741.09;5122094;28;20047;-69
2023/08/24 01:40:14;;;;;;;11.20;9.30;;;;;;;26.56;52.13;99743.03;5122344;28;20055;-68
2023/08/24 01:42:51;;;;;;;12.75;9.80;;;;;;;26.60;51.68;99748.75;5122393;28;20302;-68
2023/08/24 01:45:18;;;;;;;12.18;9.52;;;;;;;26.57;51.80;99732.97;5121924;28;20129;-69
2023/08/24 01:47:47;;;;;;;15.35;10.70;;;;;;;26.51;51.68;99742.19;5121493;28;20043;-68
2023/08/24 01:50:13;;;;;;;11.57;9.02;;;;;;;26.40;52.10;99744.88;5121603;28;20396;-68
2023/08/24 01:52:39;;;;;;;13.18;10.30;;;;;;;26.04;52.79;99730.28;5121591;28;20382;-69
2023/08/24 01:55:05;;;;;;;12.80;9.82;;;;;;;25.97;53.55;99731.59;5121648;28;20047;-69
2023/08/24 01:57:31;;;;;;;11.68;9.98;;;;;;;26.00;54.12;99725.63;5121800;28;20074;-69
2023/08/24 01:59:56;;;;;;;17.08;11.40;;;;;;;25.92;54.56;99726.13;5121938;28;20073;-69
2023/08/24 02:02:22;;;;;;;12.10;10.27;;;;;;;25.88;54.96;99733.16;5122020;28;20051;-69
2023/08/24 02:04:47;;;;;;;12.80;10.10;;;;;;;25.86;55.51;99733.41;5121720;28;20036;-69
2023/08/24 02:07:13;;;;;;;13.38;11.00;;;;;;;25.91;55.41;99730.75;5121898;28;20250;-69
2023/08/24 02:09:39;;;;;;;13.07;10.45;;;;;;;25.98;55.63;99730.50;5121658;28;20031;-69
2023/08/24 02:12:04;;;;;;;13.95;10.93;;;;;;;26.00;55.20;99731.06;5121569;28;20055;-69
2023/08/24 02:14:30;;;;;;;13.02;10.27;;;;;;;26.02;54.66;99734.34;5120592;28;20114;-69
2023/08/24 02:16:55;;;;;;;14.70;11.93;;;;;;;25.90;55.29;99731.81;5121300;28;20241;-69
2023/08/24 02:19:20;;;;;;;12.43;10.68;;;;;;;25.80;55.84;99723.63;5121076;28;20318;-69
2023/08/24 02:21:46;;;;;;;13.90;10.60;;;;;;;25.83;55.82;99730.41;5120985;28;20111;-70
2023/08/24 02:24:12;;;;;;;13.43;11.80;;;;;;;25.90;55.10;99741.84;5121117;28;20031;-69
2023/08/24 02:26:37;;;;;;;14.30;10.75;;;;;;;25.84;55.62;99740.19;5120996;28;20039;-69
2023/08/24 02:29:02;;;;;;;59.03;15.77;;;;;;;25.83;55.82;99752.13;5121219;28;20038;-69
2023/08/24 02:31:28;;;;;;;19.00;11.93;;;;;;;25.83;55.65;99744.78;5121080;28;20038;-69
2023/08/24 02:33:54;;;;;;;16.88;12.18;;;;;;;25.88;55.49;99741.28;5120808;28;20218;-70
2023/08/24 02:36:19;;;;;;;14.18;12.48;;;;;;;25.86;55.69;99729.91;5120969;28;20044;-69
2023/08/24 02:38:44;;;;;;;17.25;11.55;;;;;;;25.91;55.79;99728.03;5102334;28;20031;-69
2023/08/24 02:41:10;;;;;;;15.35;11.27;;;;;;;25.95;55.74;99736.47;5120866;28;20051;-69
2023/08/24 02:43:36;;;;;;;14.70;11.88;;;;;;;25.98;55.39;99741.34;5121022;28;20077;-69
2023/08/24 02:46:03;;;;;;;16.58;12.13;;;;;;;25.90;55.69;99739.13;5120392;28;20081;-69
2023/08/24 02:48:30;;;;;;;16.65;12.60;;;;;;;25.86;55.97;99738.84;5120073;28;20276;-69
2023/08/24 02:50:58;;;;;;;20.25;12.00;;;;;;;25.92;56.10;99724.22;5120274;28;20041;-69
2023/08/24 02:53:23;;;;;;;14.07;11.63;;;;;;;26.02;56.23;99724.31;5120243;28;20042;-69
2023/08/24 02:55:49;;;;;;;17.58;11.48;;;;;;;26.07;55.96;99735.19;5120378;28;20044;-70
2023/08/24 02:58:14;;;;;;;15.60;12.00;;;;;;;26.11;55.18;99740.09;5120373;28;20057;-69
2023/08/24 03:00:40;;;;;;;15.07;12.23;;;;;;;26.10;55.69;99736.56;5120356;28;20043;-69
2023/08/24 03:03:08;;;;;;;15.13;11.75;;;;;;;26.08;55.68;99731.41;5120557;28;20027;-69
2023/08/24 03:05:33;;;;;;;16.33;11.95;;;;;;;26.14;55.83;99728.72;5119783;28;20032;-69
2023/08/24 03:07:59;;;;;;;16.27;12.20;;;;;;;26.16;56.28;99727.38;5119635;28;20031;-69
2023/08/24 03:10:25;;;;;;;17.55;12.27;;;;;;;26.15;55.84;99741.19;5119832;28;20076;-69
2023/08/24 03:12:50;;;;;;;16.27;12.35;;;;;;;26.12;55.90;99739.00;5119759;28;20051;-69
2023/08/24 03:15:16;;;;;;;17.00;12.48;;;;;;;26.16;56.26;99742.84;5120572;28;20030;-69
2023/08/24 03:17:41;;;;;;;18.02;12.45;;;;;;;26.08;55.59;99739.53;5120391;28;20047;-69
2023/08/24 03:20:08;;;;;;;17.25;11.85;;;;;;;25.93;55.53;99734.00;5120480;28;20069;-69
2023/08/24 03:22:34;;;;;;;17.38;12.43;;;;;;;25.97;55.74;99743.25;5120175;28;20233;-69
2023/08/24 03:24:59;;;;;;;21.40;12.15;;;;;;;25.98;56.52;99744.88;5120455;28;20035;-69
2023/08/24 03:27:25;;;;;;;23.75;12.48;;;;;;;26.00;56.68;99752.75;5119109;28;20039;-69
2023/08/24 03:29:53;;;;;;;23.25;13.40;;;;;;;26.04;56.72;99748.47;5119779;28;20046;-69
2023/08/24 03:32:18;;;;;;;18.65;12.13;;;;;;;25.95;56.41;99756.25;5120376;28;20238;-69
2023/08/24 03:34:44;;;;;;;22.08;12.90;;;;;;;25.95;56.85;99745.41;5119401;28;20078;-69
2023/08/24 03:37:09;;;;;;;18.88;12.25;;;;;;;25.92;56.18;99754.06;5119708;28;20059;-69
2023/08/24 03:39:36;;;;;;;21.13;13.18;;;;;;;25.94;56.68;99760.06;5119357;28;20035;-69
2023/08/24 03:42:02;;;;;;;23.02;14.05;;;;;;;25.85;56.62;99764.34;5120384;28;20043;-69
2023/08/24 03:44:27;;;;;;;24.25;14.57;;;;;;;25.87;56.78;99767.59;5119414;28;20043;-69
2023/08/24 03:46:53;;;;;;;23.00;13.98;;;;;;;25.87;57.03;99769.50;5119066;28;20334;-69
2023/08/24 03:49:18;;;;;;;18.63;12.40;;;;;;;25.82;56.56;99773.00;5118737;28;20047;-69
2023/08/24 03:51:44;;;;;;;17.58;11.80;;;;;;;25.77;57.16;99762.94;5119489;28;20039;-70
2023/08/24 03:54:09;;;;;;;15.18;12.07;;;;;;;25.72;57.66;99756.66;5118997;28;20073;-69
2023/08/24 03:56:35;;;;;;;24.98;14.98;;;;;;;25.72;58.36;99767.50;5119548;28;20073;-69
2023/08/24 03:59:00;;;;;;;35.30;21.63;;;;;;;25.75;58.06;99770.50;5119389;28;20398;-69
2023/08/24 04:01:25;;;;;;;28.85;18.52;;;;;;;25.78;57.99;99777.31;5118878;28;20043;-69
2023/08/24 04:03:51;;;;;;;30.08;17.70;;;;;;;25.76;58.62;99772.16;5118851;28;20191;-69
2023/08/24 04:06:19;;;;;;;26.35;13.93;;;;;;;25.76;58.89;99768.63;5119346;28;20039;-69
2023/08/24 04:08:44;;;;;;;22.88;13.55;;;;;;;25.70;59.18;99775.09;5119284;28;20255;-69
2023/08/24 04:11:10;;;;;;;18.17;12.05;;;;;;;25.70;59.21;99770.47;5119523;28;20053;-70
2023/08/24 04:13:35;;;;;;;18.02;11.45;;;;;;;25.80;59.23;99771.63;5118859;28;20851;-69
2023/08/24 04:16:01;;;;;;;18.80;11.38;;;;;;;25.90;58.45;99775.22;5118441;28;20047;-69
2023/08/24 04:18:26;;;;;;;18.00;11.55;;;;;;;25.86;58.89;99767.88;5118377;28;20034;-70
2023/08/24 04:20:55;;;;;;;14.18;10.52;;;;;;;25.83;58.85;99763.78;5118582;28;20221;-69
2023/08/24 04:23:26;;;;;;;15.35;9.88;;;;;;;25.84;59.22;99762.72;5119203;28;20095;-69
2023/08/24 04:25:51;;;;;;;13.07;10.70;;;;;;;25.92;58.70;99772.25;5118911;28;20073;-69
2023/08/24 04:28:16;;;;;;;17.17;10.55;;;;;;;25.93;58.39;99772.00;5119009;28;20028;-70
2023/08/24 04:30:52;;;;;;;14.07;10.50;;;;;;;25.92;58.60;99780.38;5118245;28;20341;-69
2023/08/24 04:33:18;;;;;;;13.85;10.30;;;;;;;25.92;59.09;99777.66;5118556;28;20094;-69
2023/08/24 04:35:46;;;;;;;12.18;10.27;;;;;;;25.89;59.19;99776.31;5119164;28;20046;-69
2023/08/24 04:38:12;;;;;;;13.15;10.43;;;;;;;25.89;59.23;99779.00;5118768;28;20040;-69
2023/08/24 04:40:52;;;;;;;14.90;10.68;;;;;;;25.85;59.39;99785.22;5118385;28;20084;-69
2023/08/24 04:43:19;;;;;;;14.70;11.20;;;;;;;25.84;60.09;99786.31;5118799;28;20297;-69
2023/08/24 04:45:49;;;;;;;13.52;10.48;;;;;;;25.83;60.06;99796.34;5118553;28;20047;-69
2023/08/24 04:48:15;;;;;;;12.43;9.95;;;;;;;25.72;59.98;99792.72;5118468;28;20104;-69
2023/08/24 04:50:44;;;;;;;15.05;10.35;;;;;;;25.61;60.52;99788.28;5118496;28;20345;-69
2023/08/24 04:53:12;;;;;;;12.10;10.27;;;;;;;25.62;60.78;99798.03;5118715;28;20043;-69
2023/08/24 04:55:38;;;;;;;13.23;9.82;;;;;;;25.65;60.64;99794.84;5118757;28;20252;-69
2023/08/24 04:58:03;;;;;;;16.55;10.60;;;;;;;25.88;60.27;99801.78;5119027;28;20024;-69
2023/08/24 05:00:29;;;;;;;13.45;10.52;;;;;;;25.96;60.60;99795.88;5118417;28;20043;-69
2023/08/24 05:02:54;;;;;;;11.85;10.40;;;;;;;26.15;59.13;99803.63;5118831;28;20296;-69
2023/08/24 05:05:20;;;;;;;13.45;9.82;;;;;;;26.25;58.95;99800.97;5118640;28;20035;-69
2023/08/24 05:07:45;;;;;;;11.35;9.77;;;;;;;26.44;58.43;99798.63;5118762;28;20042;-69
2023/08/24 05:10:11;;;;;;;14.55;9.57;;;;;;;26.48;57.47;99791.59;5118952;28;20325;-69
2023/08/24 05:12:36;;;;;;;13.25;9.40;;;;;;;26.47;57.48;99798.09;5118608;28;20089;-69
2023/08/24 05:15:02;;;;;;;14.43;10.00;;;;;;;26.48;57.99;99791.59;5118327;28;20027;-69
2023/08/24 05:17:28;;;;;;;12.65;9.80;;;;;;;26.53;57.87;99802.47;5118210;28;20069;-69
2023/08/24 05:19:54;;;;;;;15.32;9.73;;;;;;;26.62;57.90;99803.59;5118069;28;20035;-69
2023/08/24 05:22:20;;;;;;;15.98;11.23;;;;;;;26.80;57.09;99807.75;5118528;28;20039;-69
2023/08/24 05:24:46;;;;;;;13.45;9.50;;;;;;;26.93;55.65;99812.66;5118351;28;20024;-69
2023/08/24 05:27:11;;;;;;;14.57;10.20;;;;;;;26.82;56.30;99819.97;5118281;28;20233;-69
2023/08/24 05:29:37;;;;;;;20.98;10.77;;;;;;;26.78;57.06;99813.44;5118129;28;20039;-69
2023/08/24 05:32:02;;;;;;;14.75;9.93;;;;;;;26.96;56.16;99812.94;5117723;28;20048;-69
2023/08/24 05:34:28;;;;;;;11.32;9.38;;;;;;;27.25;55.68;99805.19;5117203;28;20331;-69
2023/08/24 05:36:53;;;;;;;10.93;9.18;;;;;;;27.53;54.65;99803.03;5118563;28;20039;-69
2023/08/24 05:39:19;;;;;;;14.63;9.57;;;;;;;27.69;53.72;99801.97;5118088;28;20054;-69
2023/08/24 05:41:44;;;;;;;13.73;9.32;;;;;;;27.93;53.71;99810.38;5117931;28;20031;-69
2023/08/24 05:44:10;;;;;;;14.13;9.40;;;;;;;28.10;53.00;99802.75;5117778;28;20059;-69
2023/08/24 05:46:35;;;;;;;14.75;9.13;;;;;;;28.33;52.17;99800.53;5118168;28;20414;-69
2023/08/24 05:49:01;;;;;;;12.18;9.65;;;;;;;28.49;51.22;99800.19;5117919;28;20313;-69
2023/08/24 05:51:26;;;;;;;12.05;9.02;;;;;;;28.49;50.73;99788.47;5121589;28;20043;-69
2023/08/24 05:53:55;;;;;;;13.60;9.25;;;;;;;28.15;51.19;99796.47;5121785;28;20039;-69
2023/08/24 05:56:22;;;;;;;20.83;9.98;;;;;;;28.21;51.50;99798.09;5121905;28;20047;-69
2023/08/24 05:58:48;;;;;;;15.20;9.23;;;;;;;28.22;51.15;99797.00;5121808;28;20039;-69
2023/08/24 06:01:13;;;;;;;13.50;9.35;;;;;;;28.14;50.93;99801.09;5121769;28;20047;-69
2023/08/24 06:03:39;;;;;;;15.85;9.25;;;;;;;28.10;51.11;99796.47;5121447;28;20035;-69
2023/08/24 06:06:04;;;;;;;13.88;9.30;;;;;;;27.91;51.90;99802.47;5121643;28;20371;-69
2023/08/24 06:08:30;;;;;;;11.55;9.15;;;;;;;28.03;51.45;99801.38;5121263;28;20038;-69
2023/08/24 06:10:57;;;;;;;11.43;8.82;;;;;;;28.09;52.03;99801.09;5121309;28;20135;-69
2023/08/24 06:13:22;;;;;;;13.90;9.20;;;;;;;28.26;51.23;99789.94;5121753;28;20061;-69
2023/08/24 06:15:48;;;;;;;11.95;8.93;;;;;;;28.29;51.37;99792.91;5121162;28;20036;-69
2023/08/24 06:18:32;;;;;;;10.57;8.60;;;;;;;28.04;50.97;99803.00;5128896;27;20042;-69
2023/08/24 06:20:57;;;;;;;11.38;8.68;;;;;;;28.09;51.47;99811.16;5141731;27;20073;-69
2023/08/24 06:23:23;;;;;;;14.07;9.55;;;;;;;28.09;51.67;99814.72;5141633;27;20034;-69
2023/08/24 06:25:48;;;;;;;10.95;9.40;;;;;;;27.89;51.06;99814.72;5141288;27;20038;-69
2023/08/24 06:28:14;;;;;;;13.07;9.07;;;;;;;27.93;51.31;99813.91;5141374;27;20038;-69
2023/08/24 06:30:41;;;;;;;12.07;9.07;;;;;;;27.90;51.83;99814.44;5141443;27;20050;-69
2023/08/24 06:33:07;;;;;;;12.65;8.57;;;;;;;28.00;51.72;99816.34;5141234;27;20034;-69
2023/08/24 06:35:35;;;;;;;11.07;8.73;;;;;;;27.81;51.94;99815.28;5141402;27;20051;-69
2023/08/24 06:38:02;;;;;;;14.00;9.98;;;;;;;27.93;52.14;99829.41;5141154;27;20061;-69
2023/08/24 06:40:28;;;;;;;12.48;10.20;;;;;;;27.97;52.21;99823.16;5141872;27;20208;-69
2023/08/24 06:42:53;;;;;;;15.40;10.23;;;;;;;28.05;52.92;99824.50;5141196;27;20047;-69
2023/08/24 06:45:19;;;;;;;17.55;9.80;;;;;;;28.47;51.99;99820.63;5140907;27;20051;-69
2023/08/24 06:47:44;;;;;;;16.50;10.00;;;;;;;28.81;51.73;99810.66;5140755;27;20419;-69
2023/08/24 06:50:10;;;;;;;10.50;8.82;;;;;;;29.14;50.87;99814.63;5140928;27;20210;-69
2023/08/24 06:52:36;;;;;;;18.33;9.82;;;;;;;29.28;51.67;99831.16;5141019;27;20338;-69
2023/08/24 06:55:03;;;;;;;17.15;10.70;;;;;;;29.37;52.19;99825.94;5141057;27;20103;-69
2023/08/24 06:57:28;;;;;;;13.63;9.63;;;;;;;29.54;50.87;99832.66;5140794;27;20054;-69
2023/08/24 06:59:54;;;;;;;14.55;8.73;;;;;;;29.76;50.50;99836.84;5141328;27;20349;-69
2023/08/24 07:02:19;;;;;;;12.60;9.90;;;;;;;29.73;50.76;99826.50;5141046;27;20267;-70
2023/08/24 07:04:45;;;;;;;11.75;9.18;;;;;;;30.04;51.79;99822.41;5141174;27;20202;-70
2023/08/24 07:07:10;;;;;;;14.70;10.95;;;;;;;30.17;52.25;99819.00;5141070;27;20054;-69
2023/08/24 07:09:36;;;;;;;14.35;10.00;;;;;;;30.27;51.18;99820.81;5141464;27;20043;-69
2023/08/24 07:12:03;;;;;;;11.60;9.48;;;;;;;30.30;50.13;99814.78;5140857;27;20062;-69
2023/08/24 07:14:28;;;;;;;11.30;9.70;;;;;;;29.84;48.87;99809.72;5141096;27;20057;-67
2023/08/24 07:16:54;;;;;;;11.30;9.15;;;;;;;29.72;50.94;99812.03;5140225;27;20031;-67
2023/08/24 07:19:20;;;;;;;11.63;8.73;;;;;;;29.72;51.39;99803.03;5140572;27;20054;-67
2023/08/24 07:21:45;;;;;;;13.50;10.05;;;;;;;29.85;50.63;99797.72;5140074;27;20038;-67
2023/08/24 07:24:10;;;;;;;11.82;9.38;;;;;;;30.10;49.86;99801.31;5140486;27;20027;-68
2023/08/24 07:26:36;;;;;;;11.98;9.10;;;;;;;30.38;48.06;99802.41;5139805;27;20027;-68
2023/08/24 07:29:02;;;;;;;10.05;8.65;;;;;;;30.26;49.02;99799.25;5140427;27;20035;-68
2023/08/24 07:31:27;;;;;;;12.02;8.18;;;;;;;30.46;49.58;99797.09;5139968;27;20068;-69
2023/08/24 07:33:53;;;;;;;9.52;8.23;;;;;;;30.38;50.07;99800.47;5140929;27;20244;-68
2023/08/24 07:36:18;;;;;;;12.82;8.95;;;;;;;30.69;50.49;99803.66;5140314;27;20095;-68
2023/08/24 07:38:46;;;;;;;10.13;8.77;;;;;;;30.57;51.86;99808.72;5140320;27;20039;-68
2023/08/24 07:41:12;;;;;;;11.38;9.07;;;;;;;30.63;50.83;99804.03;5140224;27;20110;-68
2023/08/24 07:43:37;;;;;;;10.85;7.68;;;;;;;30.61;51.41;99806.25;5140022;27;20035;-68
2023/08/24 07:46:03;;;;;;;8.93;7.47;;;;;;;30.49;51.84;99810.19;5139859;27;20226;-68
2023/08/24 07:48:29;;;;;;;8.10;6.38;;;;;;;30.45;51.14;99811.88;5139501;27;20356;-69
2023/08/24 07:50:55;;;;;;;6.97;6.38;;;;;;;30.38;50.99;99816.88;5140382;27;20043;-68
2023/08/24 07:53:20;;;;;;;8.48;5.80;;;;;;;30.39;51.41;99813.03;5140116;27;20305;-68
2023/08/24 07:55:46;;;;;;;7.97;5.05;;;;;;;30.33;48.48;99806.00;5140276;27;20875;-69
2023/08/24 07:58:12;;;;;;;6.40;5.05;;;;;;;30.33;48.32;99816.13;5139696;27;20075;-68
2023/08/24 08:00:37;;;;;;;7.97;6.07;;;;;;;30.16;47.92;99811.09;5140166;27;20311;-68
2023/08/24 08:06:51;;;;;;;6.47;5.53;;;;;;;30.65;46.83;99808.09;5119067;28;20060;-68
2023/08/24 08:09:16;;;;;;;7.53;5.90;;;;;;;31.06;45.36;99807.53;5119702;28;20062;-69
2023/08/24 08:11:42;;;;;;;7.13;6.20;;;;;;;31.39;44.40;99819.41;5118882;28;20073;-68
2023/08/24 08:14:08;;;;;;;9.27;5.90;;;;;;;31.61;44.71;99810.56;5118034;28;20086;-68
2023/08/24 08:16:36;;;;;;;8.38;5.90;;;;;;;31.88;43.80;99807.94;5119158;28;20043;-68
2023/08/24 08:19:01;;;;;;;8.02;6.18;;;;;;;31.98;44.09;99810.47;5118904;28;20048;-68
2023/08/24 08:21:27;;;;;;;7.57;5.50;;;;;;;32.14;42.97;99808.25;5119542;28;20047;-68
2023/08/24 08:23:53;;;;;;;11.13;6.95;;;;;;;32.17;43.67;99804.09;5118388;28;20073;-69
2023/08/24 08:26:18;;;;;;;8.13;7.15;;;;;;;32.37;43.51;99809.25;5119584;28;20032;-68
2023/08/24 08:28:44;;;;;;;9.40;7.57;;;;;;;32.50;43.16;99810.34;5119481;28;20224;-68
2023/08/24 08:31:09;;;;;;;10.55;7.82;;;;;;;32.63;43.45;99799.38;5118229;28;20081;-68
2023/08/24 08:33:35;;;;;;;11.32;7.80;;;;;;;32.64;44.18;99787.28;5117487;28;20320;-69
2023/08/24 08:36:00;;;;;;;9.10;7.18;;;;;;;32.68;42.90;99795.72;5117933;28;20329;-68
2023/08/24 08:38:25;;;;;;;8.70;7.15;;;;;;;32.64;41.72;99800.19;5117972;28;20035;-68
2023/08/24 08:40:55;;;;;;;9.85;8.35;;;;;;;32.43;40.84;99796.25;5118300;28;20053;-68
2023/08/24 08:43:24;;;;;;;8.52;6.78;;;;;;;32.58;41.05;99799.47;5118213;28;20027;-68
2023/08/24 08:45:51;;;;;;;11.32;7.47;;;;;;;32.60;39.93;99799.19;5079914;28;20223;-69
2023/08/24 08:48:17;;;;;;;9.60;6.82;;;;;;;32.68;40.42;99795.72;5078008;28;20033;-68
2023/08/24 08:50:42;;;;;;;8.70;6.97;;;;;;;32.62;40.55;99786.78;5078547;28;20036;-68
2023/08/24 08:53:08;;;;;;;8.90;7.18;;;;;;;32.56;40.24;99787.22;5077856;28;20330;-68
2023/08/24 08:55:34;;;;;;;9.10;8.07;;;;;;;32.63;40.22;99776.63;5077428;28;20036;-68
2023/08/24 08:58:02;;;;;;;8.93;7.60;;;;;;;32.66;39.40;99789.72;5077634;28;20035;-68
2023/08/24 09:00:28;;;;;;;8.23;7.15;;;;;;;32.62;38.37;99781.31;5078467;28;20242;-68
2023/08/24 09:02:56;;;;;;;10.18;6.93;;;;;;;32.84;37.83;99788.00;5077811;28;20227;-68
2023/08/24 09:05:22;;;;;;;11.52;7.28;;;;;;;32.92;36.29;99771.63;5077431;28;20048;-68
2023/08/24 09:07:48;;;;;;;7.78;6.50;;;;;;;32.99;37.53;99776.69;5077667;28;20050;-68
2023/08/24 09:10:14;;;;;;;6.50;5.90;;;;;;;33.03;37.17;99774.13;5077448;28;20044;-68
2023/08/24 09:12:39;;;;;;;6.75;6.07;;;;;;;33.01;35.90;99768.94;5078205;28;20285;-68
2023/08/24 09:15:06;;;;;;;6.88;6.15;;;;;;;32.86;36.32;99763.81;5077637;28;20303;-69
2023/08/24 09:17:33;;;;;;;6.53;5.85;;;;;;;32.81;36.20;99758.44;5077748;28;20397;-68
2023/08/24 09:20:00;;;;;;;6.55;5.95;;;;;;;32.87;38.32;99763.50;5077906;28;20051;-68
2023/08/24 09:22:26;;;;;;;7.13;6.25;;;;;;;33.06;36.85;99752.38;5077744;28;20055;-68
2023/08/24 09:24:52;;;;;;;8.73;6.43;;;;;;;33.05;36.31;99755.44;5078850;28;20040;-68
2023/08/24 09:27:19;;;;;;;7.53;6.82;;;;;;;32.98;36.73;99755.84;5081872;28;20036;-68
2023/08/24 09:29:51;;;;;;;8.73;6.05;;;;;;;32.97;36.42;99751.50;5081060;28;20073;-68
2023/08/24 09:32:33;;;;;;;6.30;5.70;;;;;;;33.01;35.23;99749.75;5082161;28;20028;-69
2023/08/24 09:35:09;;;;;;;7.22;6.53;;;;;;;32.98;37.17;99753.94;5080907;28;20029;-68
2023/08/24 09:37:36;;;;;;;7.75;6.97;;;;;;;32.88;38.25;99745.94;5081580;28;20365;-69
2023/08/24 09:40:09;;;;;;;9.27;7.13;;;;;;;32.60;38.69;99750.66;5081730;28;20071;-68
2023/08/24 09:42:42;;;;;;;8.10;6.60;;;;;;;32.52;38.56;99756.84;5081757;28;20034;-68
2023/08/24 09:45:11;;;;;;;8.10;6.88;;;;;;;32.46;39.22;99746.31;5102648;28;20059;-68
2023/08/24 09:47:37;;;;;;;8.35;7.28;;;;;;;32.41;39.28;99739.00;5122075;28;20103;-68
2023/08/24 09:50:04;;;;;;;7.45;6.45;;;;;;;32.59;37.24;99746.28;5121799;28;20039;-69
2023/08/24 09:52:33;;;;;;;8.43;6.85;;;;;;;32.55;36.88;99747.22;5122364;28;20263;-68
2023/08/24 09:55:05;;;;;;;6.82;6.13;;;;;;;32.60;36.88;99755.31;5121756;28;20221;-69
2023/08/24 09:57:38;;;;;;;7.20;6.50;;;;;;;32.55;36.96;99747.22;5121960;28;20039;-68
2023/08/24 10:00:15;;;;;;;7.78;6.95;;;;;;;32.31;37.33;99740.03;5122050;28;20136;-68
2023/08/24 10:02:50;;;;;;;7.43;6.78;;;;;;;32.15;38.06;99752.34;5121389;28;20044;-69
2023/08/24 10:05:23;;;;;;;8.10;7.30;;;;;;;32.10;38.93;99752.47;5121614;28;20028;-69
2023/08/24 10:07:53;;;;;;;7.97;7.18;;;;;;;32.26;38.48;99744.81;5122022;28;20253;-69
2023/08/24 10:10:21;;;;;;;7.35;6.60;;;;;;;32.26;39.19;99740.13;5121280;28;20148;-69
2023/08/24 10:12:51;;;;;;;8.30;7.32;;;;;;;32.17;38.69;99730.94;5121439;28;20289;-68
2023/08/24 10:15:18;;;;;;;9.80;7.80;;;;;;;31.92;39.00;99735.00;5121685;28;20222;-68
2023/08/24 10:17:44;;;;;;;10.77;8.93;;;;;;;31.85;41.04;99729.13;5121363;28;20325;-68
2023/08/24 10:20:11;;;;;;;9.68;8.55;;;;;;;31.73;40.90;99721.41;5121442;28;20252;-68
2023/08/24 10:22:37;;;;;;;9.45;7.88;;;;;;;31.83;40.97;99717.66;5121982;28;20047;-69
2023/08/24 10:25:03;;;;;;;8.85;7.72;;;;;;;31.76;41.56;99711.78;5120800;28;20036;-68
2023/08/24 10:27:29;;;;;;;9.13;7.30;;;;;;;31.74;40.60;99711.25;5121443;28;20035;-69
2023/08/24 10:29:55;;;;;;;8.45;7.65;;;;;;;31.78;41.16;99700.53;5121289;28;20103;-68
2023/08/24 10:32:23;;;;;;;9.80;7.43;;;;;;;31.69;41.55;99701.22;5120957;28;20031;-68
2023/08/24 10:34:50;;;;;;;8.77;7.82;;;;;;;31.73;41.94;99696.75;5120150;28;20198;-68
2023/08/24 10:37:15;;;;;;;9.73;8.80;;;;;;;31.79;43.12;99702.16;5121000;28;20221;-68
2023/08/24 10:39:46;;;;;;;9.07;8.18;;;;;;;31.84;41.02;99700.13;5120808;28;20031;-68
2023/08/24 10:42:12;;;;;;;9.35;8.43;;;;;;;31.92;41.16;99698.59;5121087;28;20391;-68
2023/08/24 10:44:40;;;;;;;8.65;7.80;;;;;;;31.79;41.32;99696.66;5120762;28;20085;-68
2023/08/24 10:47:16;;;;;;;8.82;8.02;;;;;;;31.74;41.54;99683.88;5121464;28;20028;-68
2023/08/24 10:49:42;;;;;;;11.02;9.82;;;;;;;31.72;43.29;99677.91;5120932;28;20061;-68
2023/08/24 10:52:39;;;;;;;11.45;9.15;;;;;;;31.63;42.23;99669.56;5121079;28;20035;-68
2023/08/24 10:55:21;;;;;;;9.18;8.23;;;;;;;31.62;42.02;99669.84;5120749;28;20075;-69
2023/08/24 10:57:58;;;;;;;7.95;7.15;;;;;;;31.59;40.87;99665.81;5121293;28;20031;-68
2023/08/24 11:00:28;;;;;;;8.57;6.97;;;;;;;31.66;40.68;99663.47;5121033;28;20095;-68
2023/08/24 11:02:54;;;;;;;10.73;7.70;;;;;;;31.61;41.39;99660.84;5120313;28;20059;-68
2023/08/24 11:05:29;;;;;;;9.15;8.25;;;;;;;31.77;42.26;99661.38;5120319;28;20076;-67
2023/08/24 11:07:59;;;;;;;9.75;8.60;;;;;;;31.89;43.44;99652.66;5120682;28;20047;-68
2023/08/24 11:10:33;;;;;;;10.30;8.68;;;;;;;31.97;43.47;99633.59;5119825;28;20229;-69
2023/08/24 11:13:05;;;;;;;10.15;8.68;;;;;;;32.19;43.01;99640.25;5120877;28;20233;-69
2023/08/24 11:15:45;;;;;;;9.57;8.63;;;;;;;32.19;43.94;99638.31;5120865;28;20040;-68
2023/08/24 11:18:22;;;;;;;12.52;8.43;;;;;;;32.33;43.97;99630.13;5120349;28;20028;-69
2023/08/24 11:21:02;;;;;;;11.05;8.60;;;;;;;32.48;44.24;99623.47;5120472;28;20043;-69
2023/08/24 11:23:29;;;;;;;9.00;7.95;;;;;;;32.57;43.51;99610.66;5120091;28;20035;-67
2023/08/24 11:25:57;;;;;;;9.25;8.13;;;;;;;32.55;42.62;99615.63;5120189;28;20057;-68
2023/08/24 11:28:25;;;;;;;11.15;8.80;;;;;;;32.54;44.12;99608.53;5120075;28;20039;-68